Terminal Aerodrome Forecast
Issued by NWS

Home | Current Version | Previous Version | Graphics & Text | Print | Product List | Glossary On
Versions: 1 2 3 4 5 6 7 8 9 10 11 12 13 14 15 16 17 18 19 20
000
FTUS43 KABR 231249 AAA
TAFATY
TAF AMD
KATY 231249Z 2313/2412 04006KT P6SM FEW007 BKN250
      TEMPO 2314/2317 BKN007
     FM231700 11010KT P6SM SCT009 SCT200
     FM232000 19014G24KT P6SM SCT200
     FM240000 19011KT P6SM SCT250
     FM240300 14011KT P6SM SCT200
     FM240500 15013KT P6SM BKN250 WS020/19035KT
     FM240800 17014KT P6SM BKN200 WS020/19040KT=

USA.gov is the U.S. government's official web portal to all federal, state and local government web resources and services.